Terminal Aerodrome Forecast
Issued by NWS Billings, MT

Home | Current Version | Previous Version | Text Only | Print | Product List | Glossary Off
Versions: 1 2 3 4 5 6 7 8 9 10 11 12 13 14

000
FTUS45 KBYZ 230532
TAFMLS
TAF
KMLS 230532Z 2306/2406 VRB06KT P6SM SCT050 OVC120
     FM230700 VRB06KT P6SM VCSH SCT025 BKN050 OVC100
     FM231000 36008KT 6SM -RA BKN025 OVC050
     FM231900 32012KT 6SM -RA BKN025 OVC050
     FM232200 32011KT P6SM VCSH SCT025 SCT070=

USA.gov is the U.S. government's official web portal to all federal, state and local government web resources and services.